sensor_id;sensor_type;location;lat;lon;timestamp;temperature;humidity
12967;DHT22;6548;49.996;8.238;2022-07-29T00:00:14;21.60;99.90
12967;DHT22;6548;49.996;8.238;2022-07-29T00:02:40;21.30;99.90
12967;DHT22;6548;49.996;8.238;2022-07-29T00:05:07;21.10;99.90
12967;DHT22;6548;49.996;8.238;2022-07-29T00:07:33;21.00;99.90
12967;DHT22;6548;49.996;8.238;2022-07-29T00:09:59;20.90;99.90
12967;DHT22;6548;49.996;8.238;2022-07-29T00:12:25;21.40;99.90
12967;DHT22;6548;49.996;8.238;2022-07-29T00:14:51;21.10;99.90
12967;DHT22;6548;49.996;8.238;2022-07-29T00:17:17;20.90;99.90
12967;DHT22;6548;49.996;8.238;2022-07-29T00:19:43;21.90;99.90
12967;DHT22;6548;49.996;8.238;2022-07-29T00:22:08;22.10;99.90
12967;DHT22;6548;49.996;8.238;2022-07-29T00:24:34;20.70;99.90
12967;DHT22;6548;49.996;8.238;2022-07-29T00:26:59;20.80;99.90
12967;DHT22;6548;49.996;8.238;2022-07-29T00:29:25;21.70;99.90
12967;DHT22;6548;49.996;8.238;2022-07-29T00:31:51;21.00;99.90
12967;DHT22;6548;49.996;8.238;2022-07-29T00:34:17;21.90;99.90
12967;DHT22;6548;49.996;8.238;2022-07-29T00:37:01;20.70;99.90
12967;DHT22;6548;49.996;8.238;2022-07-29T00:39:26;20.60;99.90
12967;DHT22;6548;49.996;8.238;2022-07-29T00:41:52;20.60;99.90
12967;DHT22;6548;49.996;8.238;2022-07-29T00:44:18;20.60;99.90
12967;DHT22;6548;49.996;8.238;2022-07-29T00:46:43;20.40;99.90
12967;DHT22;6548;49.996;8.238;2022-07-29T00:49:09;20.20;99.90
12967;DHT22;6548;49.996;8.238;2022-07-29T00:51:36;20.00;99.90
12967;DHT22;6548;49.996;8.238;2022-07-29T00:54:03;19.90;99.90
12967;DHT22;6548;49.996;8.238;2022-07-29T00:56:33;19.80;99.90
12967;DHT22;6548;49.996;8.238;2022-07-29T00:58:59;20.80;99.90
12967;DHT22;6548;49.996;8.238;2022-07-29T01:01:26;19.40;99.90
12967;DHT22;6548;49.996;8.238;2022-07-29T01:03:51;19.70;99.90
12967;DHT22;6548;49.996;8.238;2022-07-29T01:06:18;19.60;99.90
12967;DHT22;6548;49.996;8.238;2022-07-29T01:08:47;19.50;99.90
12967;DHT22;6548;49.996;8.238;2022-07-29T01:11:14;19.40;99.90
12967;DHT22;6548;49.996;8.238;2022-07-29T01:13:42;19.30;99.90
12967;DHT22;6548;49.996;8.238;2022-07-29T01:16:15;19.10;99.90
12967;DHT22;6548;49.996;8.238;2022-07-29T01:18:46;18.80;99.90
12967;DHT22;6548;49.996;8.238;2022-07-29T01:29:58;18.60;99.90
12967;DHT22;6548;49.996;8.238;2022-07-29T01:32:31;17.80;99.90
12967;DHT22;6548;49.996;8.238;2022-07-29T01:34:59;17.70;99.90
12967;DHT22;6548;49.996;8.238;2022-07-29T01:37:52;17.60;99.90
12967;DHT22;6548;49.996;8.238;2022-07-29T01:40:24;17.60;99.90
12967;DHT22;6548;49.996;8.238;2022-07-29T01:42:54;17.40;99.90
12967;DHT22;6548;49.996;8.238;2022-07-29T01:45:43;17.50;99.90
12967;DHT22;6548;49.996;8.238;2022-07-29T01:48:21;17.50;99.90
12967;DHT22;6548;49.996;8.238;2022-07-29T01:51:01;17.60;99.90
12967;DHT22;6548;49.996;8.238;2022-07-29T01:53:33;17.60;99.90
12967;DHT22;6548;49.996;8.238;2022-07-29T01:56:01;17.50;99.90
12967;DHT22;6548;49.996;8.238;2022-07-29T01:58:29;17.70;99.90
12967;DHT22;6548;49.996;8.238;2022-07-29T02:00:57;17.30;99.90
12967;DHT22;6548;49.996;8.238;2022-07-29T02:03:24;17.40;99.90
12967;DHT22;6548;49.996;8.238;2022-07-29T02:05:52;17.30;99.90
12967;DHT22;6548;49.996;8.238;2022-07-29T02:08:19;18.00;99.90
12967;DHT22;6548;49.996;8.238;2022-07-29T02:10:46;17.40;99.90
12967;DHT22;6548;49.996;8.238;2022-07-29T02:13:14;17.40;99.90
12967;DHT22;6548;49.996;8.238;2022-07-29T02:15:42;17.20;99.90
12967;DHT22;6548;49.996;8.238;2022-07-29T02:18:17;17.20;99.90
12967;DHT22;6548;49.996;8.238;2022-07-29T02:20:49;17.20;99.90
12967;DHT22;6548;49.996;8.238;2022-07-29T02:23:18;17.00;99.90
12967;DHT22;6548;49.996;8.238;2022-07-29T02:25:46;17.20;99.90
12967;DHT22;6548;49.996;8.238;2022-07-29T02:28:13;17.20;99.90
12967;DHT22;6548;49.996;8.238;2022-07-29T02:30:41;17.10;99.90
12967;DHT22;6548;49.996;8.238;2022-07-29T02:33:10;17.00;99.90
12967;DHT22;6548;49.996;8.238;2022-07-29T02:35:38;17.00;99.90
12967;DHT22;6548;49.996;8.238;2022-07-29T02:38:07;16.90;99.90
12967;DHT22;6548;49.996;8.238;2022-07-29T02:40:52;16.90;99.90
12967;DHT22;6548;49.996;8.238;2022-07-29T02:43:19;16.30;99.90
12967;DHT22;6548;49.996;8.238;2022-07-29T02:45:47;17.40;99.90
12967;DHT22;6548;49.996;8.238;2022-07-29T02:48:16;17.30;99.90
12967;DHT22;6548;49.996;8.238;2022-07-29T02:50:54;17.10;99.90
12967;DHT22;6548;49.996;8.238;2022-07-29T02:53:25;17.20;99.90
12967;DHT22;6548;49.996;8.238;2022-07-29T02:55:56;17.50;99.90
12967;DHT22;6548;49.996;8.238;2022-07-29T02:58:47;17.00;99.90
12967;DHT22;6548;49.996;8.238;2022-07-29T03:01:22;16.90;99.90
12967;DHT22;6548;49.996;8.238;2022-07-29T03:03:50;16.80;99.90
12967;DHT22;6548;49.996;8.238;2022-07-29T03:06:18;16.80;99.90
12967;DHT22;6548;49.996;8.238;2022-07-29T03:08:44;16.80;99.90
12967;DHT22;6548;49.996;8.238;2022-07-29T03:11:12;17.00;99.90
12967;DHT22;6548;49.996;8.238;2022-07-29T03:13:39;17.20;99.90
12967;DHT22;6548;49.996;8.238;2022-07-29T03:16:05;17.70;99.90
12967;DHT22;6548;49.996;8.238;2022-07-29T03:18:32;17.20;99.90
12967;DHT22;6548;49.996;8.238;2022-07-29T03:20:58;17.10;99.90
12967;DHT22;6548;49.996;8.238;2022-07-29T03:23:24;16.90;99.90
12967;DHT22;6548;49.996;8.238;2022-07-29T03:25:52;16.80;99.90
12967;DHT22;6548;49.996;8.238;2022-07-29T03:28:18;16.70;99.90
12967;DHT22;6548;49.996;8.238;2022-07-29T03:30:44;16.70;99.90
12967;DHT22;6548;49.996;8.238;2022-07-29T03:33:09;16.70;99.90
12967;DHT22;6548;49.996;8.238;2022-07-29T03:35:35;16.70;99.90
12967;DHT22;6548;49.996;8.238;2022-07-29T03:38:00;16.70;99.90
12967;DHT22;6548;49.996;8.238;2022-07-29T03:40:32;16.70;99.90
12967;DHT22;6548;49.996;8.238;2022-07-29T03:42:59;16.60;99.90
12967;DHT22;6548;49.996;8.238;2022-07-29T03:45:26;16.60;99.90
12967;DHT22;6548;49.996;8.238;2022-07-29T03:47:56;16.50;99.90
12967;DHT22;6548;49.996;8.238;2022-07-29T03:50:23;16.50;99.90
12967;DHT22;6548;49.996;8.238;2022-07-29T03:52:49;16.60;99.90
12967;DHT22;6548;49.996;8.238;2022-07-29T03:55:16;16.60;99.90
12967;DHT22;6548;49.996;8.238;2022-07-29T03:57:42;16.60;99.90
12967;DHT22;6548;49.996;8.238;2022-07-29T04:00:10;16.60;99.90
12967;DHT22;6548;49.996;8.238;2022-07-29T04:02:36;16.50;99.90
12967;DHT22;6548;49.996;8.238;2022-07-29T04:05:03;16.50;99.90
12967;DHT22;6548;49.996;8.238;2022-07-29T04:07:29;16.50;99.90
12967;DHT22;6548;49.996;8.238;2022-07-29T04:09:55;16.40;99.90
12967;DHT22;6548;49.996;8.238;2022-07-29T04:12:20;16.40;99.90
12967;DHT22;6548;49.996;8.238;2022-07-29T04:14:46;16.50;99.90
12967;DHT22;6548;49.996;8.238;2022-07-29T04:17:12;16.50;99.90
12967;DHT22;6548;49.996;8.238;2022-07-29T04:19:37;16.50;99.90
12967;DHT22;6548;49.996;8.238;2022-07-29T04:22:03;16.50;99.90
12967;DHT22;6548;49.996;8.238;2022-07-29T04:24:28;16.50;99.90
12967;DHT22;6548;49.996;8.238;2022-07-29T04:26:54;16.50;99.90
12967;DHT22;6548;49.996;8.238;2022-07-29T04:29:20;16.50;99.90
12967;DHT22;6548;49.996;8.238;2022-07-29T04:31:45;16.50;99.90
12967;DHT22;6548;49.996;8.238;2022-07-29T04:34:12;16.60;99.90
12967;DHT22;6548;49.996;8.238;2022-07-29T04:36:38;16.60;99.90
12967;DHT22;6548;49.996;8.238;2022-07-29T04:39:04;16.60;99.90
12967;DHT22;6548;49.996;8.238;2022-07-29T04:41:30;16.60;99.90
12967;DHT22;6548;49.996;8.238;2022-07-29T04:43:56;16.60;99.90
12967;DHT22;6548;49.996;8.238;2022-07-29T04:46:21;16.70;99.90
12967;DHT22;6548;49.996;8.238;2022-07-29T04:48:47;16.70;99.90
12967;DHT22;6548;49.996;8.238;2022-07-29T04:51:16;16.80;99.90
12967;DHT22;6548;49.996;8.238;2022-07-29T04:53:41;16.80;99.90
12967;DHT22;6548;49.996;8.238;2022-07-29T04:56:07;16.90;99.90
12967;DHT22;6548;49.996;8.238;2022-07-29T04:58:36;16.90;99.90
12967;DHT22;6548;49.996;8.238;2022-07-29T05:01:02;17.00;99.90
12967;DHT22;6548;49.996;8.238;2022-07-29T05:03:27;17.10;99.90
12967;DHT22;6548;49.996;8.238;2022-07-29T05:05:53;17.20;99.90
12967;DHT22;6548;49.996;8.238;2022-07-29T05:08:18;17.20;99.90
12967;DHT22;6548;49.996;8.238;2022-07-29T05:10:44;17.30;99.90
12967;DHT22;6548;49.996;8.238;2022-07-29T05:13:10;17.40;99.90
12967;DHT22;6548;49.996;8.238;2022-07-29T05:15:36;17.40;99.90
12967;DHT22;6548;49.996;8.238;2022-07-29T05:18:02;17.50;99.90
12967;DHT22;6548;49.996;8.238;2022-07-29T05:20:28;17.50;99.90
12967;DHT22;6548;49.996;8.238;2022-07-29T05:22:58;17.60;99.90
12967;DHT22;6548;49.996;8.238;2022-07-29T05:25:25;17.60;99.90
12967;DHT22;6548;49.996;8.238;2022-07-29T05:27:51;17.70;99.90
12967;DHT22;6548;49.996;8.238;2022-07-29T05:30:17;17.80;99.90
12967;DHT22;6548;49.996;8.238;2022-07-29T05:32:43;17.90;99.90
12967;DHT22;6548;49.996;8.238;2022-07-29T05:35:08;17.90;99.90
12967;DHT22;6548;49.996;8.238;2022-07-29T05:37:34;18.00;99.90
12967;DHT22;6548;49.996;8.238;2022-07-29T05:40:00;18.60;99.90
12967;DHT22;6548;49.996;8.238;2022-07-29T05:42:25;18.20;99.90
12967;DHT22;6548;49.996;8.238;2022-07-29T05:44:51;18.80;99.90
12967;DHT22;6548;49.996;8.238;2022-07-29T05:47:17;18.50;99.90
12967;DHT22;6548;49.996;8.238;2022-07-29T05:49:43;18.40;99.90
12967;DHT22;6548;49.996;8.238;2022-07-29T05:52:09;19.70;99.90
12967;DHT22;6548;49.996;8.238;2022-07-29T05:54:35;19.80;99.90
12967;DHT22;6548;49.996;8.238;2022-07-29T05:57:00;19.00;99.90
12967;DHT22;6548;49.996;8.238;2022-07-29T05:59:26;18.80;99.90
12967;DHT22;6548;49.996;8.238;2022-07-29T06:01:52;18.90;99.90
12967;DHT22;6548;49.996;8.238;2022-07-29T06:04:17;19.00;99.90
12967;DHT22;6548;49.996;8.238;2022-07-29T06:06:43;19.10;99.90
12967;DHT22;6548;49.996;8.238;2022-07-29T06:09:08;19.30;99.90
12967;DHT22;6548;49.996;8.238;2022-07-29T06:11:34;19.40;99.90
12967;DHT22;6548;49.996;8.238;2022-07-29T06:13:59;19.50;99.90
12967;DHT22;6548;49.996;8.238;2022-07-29T06:16:25;19.70;99.90
12967;DHT22;6548;49.996;8.238;2022-07-29T06:18:50;19.90;99.90
12967;DHT22;6548;49.996;8.238;2022-07-29T06:21:17;20.50;99.90
12967;DHT22;6548;49.996;8.238;2022-07-29T06:23:44;21.20;99.90
12967;DHT22;6548;49.996;8.238;2022-07-29T06:26:10;22.10;99.90
12967;DHT22;6548;49.996;8.238;2022-07-29T06:28:36;22.90;99.90
12967;DHT22;6548;49.996;8.238;2022-07-29T06:31:01;23.60;99.90
12967;DHT22;6548;49.996;8.238;2022-07-29T06:33:27;24.10;99.90
12967;DHT22;6548;49.996;8.238;2022-07-29T06:35:52;24.40;99.90
12967;DHT22;6548;49.996;8.238;2022-07-29T06:38:18;24.60;99.90
12967;DHT22;6548;49.996;8.238;2022-07-29T06:40:44;24.80;99.90
12967;DHT22;6548;49.996;8.238;2022-07-29T06:43:30;24.80;99.90
12967;DHT22;6548;49.996;8.238;2022-07-29T06:46:02;24.70;99.90
12967;DHT22;6548;49.996;8.238;2022-07-29T06:48:28;24.50;99.90
12967;DHT22;6548;49.996;8.238;2022-07-29T06:50:54;24.40;99.90
12967;DHT22;6548;49.996;8.238;2022-07-29T06:53:19;24.90;99.90
12967;DHT22;6548;49.996;8.238;2022-07-29T06:55:45;24.60;99.90
12967;DHT22;6548;49.996;8.238;2022-07-29T06:58:11;24.60;99.90
12967;DHT22;6548;49.996;8.238;2022-07-29T07:00:37;24.40;99.90
12967;DHT22;6548;49.996;8.238;2022-07-29T07:03:03;25.10;99.90
12967;DHT22;6548;49.996;8.238;2022-07-29T07:05:28;26.00;99.90
12967;DHT22;6548;49.996;8.238;2022-07-29T07:07:54;26.70;99.90
12967;DHT22;6548;49.996;8.238;2022-07-29T07:10:20;26.80;99.90
12967;DHT22;6548;49.996;8.238;2022-07-29T07:12:45;26.70;99.90
12967;DHT22;6548;49.996;8.238;2022-07-29T07:15:11;27.00;99.90
12967;DHT22;6548;49.996;8.238;2022-07-29T07:17:36;26.90;99.90
12967;DHT22;6548;49.996;8.238;2022-07-29T07:20:04;26.90;99.90
12967;DHT22;6548;49.996;8.238;2022-07-29T07:22:30;26.40;99.90
12967;DHT22;6548;49.996;8.238;2022-07-29T07:24:55;26.20;99.90
12967;DHT22;6548;49.996;8.238;2022-07-29T07:27:21;25.70;99.90
12967;DHT22;6548;49.996;8.238;2022-07-29T07:29:47;25.70;99.90
12967;DHT22;6548;49.996;8.238;2022-07-29T07:32:12;25.20;99.90
12967;DHT22;6548;49.996;8.238;2022-07-29T07:34:38;25.40;99.90
12967;DHT22;6548;49.996;8.238;2022-07-29T07:37:04;25.50;99.90
12967;DHT22;6548;49.996;8.238;2022-07-29T07:39:30;26.10;99.90
12967;DHT22;6548;49.996;8.238;2022-07-29T07:41:56;25.80;99.90
12967;DHT22;6548;49.996;8.238;2022-07-29T07:44:21;25.70;99.90
12967;DHT22;6548;49.996;8.238;2022-07-29T07:46:47;25.90;99.90
12967;DHT22;6548;49.996;8.238;2022-07-29T07:49:12;26.20;99.90
12967;DHT22;6548;49.996;8.238;2022-07-29T07:51:38;26.80;99.90
12967;DHT22;6548;49.996;8.238;2022-07-29T07:54:03;27.40;99.90
12967;DHT22;6548;49.996;8.238;2022-07-29T07:56:29;27.90;99.90
12967;DHT22;6548;49.996;8.238;2022-07-29T07:58:55;27.30;99.90
12967;DHT22;6548;49.996;8.238;2022-07-29T08:01:20;27.60;99.90
12967;DHT22;6548;49.996;8.238;2022-07-29T08:03:49;27.40;99.90
12967;DHT22;6548;49.996;8.238;2022-07-29T08:06:14;27.70;99.90
12967;DHT22;6548;49.996;8.238;2022-07-29T08:08:40;27.70;99.90
12967;DHT22;6548;49.996;8.238;2022-07-29T08:11:05;27.20;99.90
12967;DHT22;6548;49.996;8.238;2022-07-29T08:13:31;27.40;99.90
12967;DHT22;6548;49.996;8.238;2022-07-29T08:15:58;27.80;99.90
12967;DHT22;6548;49.996;8.238;2022-07-29T08:18:36;28.20;99.90
12967;DHT22;6548;49.996;8.238;2022-07-29T08:21:01;28.70;99.90
12967;DHT22;6548;49.996;8.238;2022-07-29T08:23:27;29.20;99.90
12967;DHT22;6548;49.996;8.238;2022-07-29T08:26:00;29.60;99.90
12967;DHT22;6548;49.996;8.238;2022-07-29T08:28:25;29.90;99.90
12967;DHT22;6548;49.996;8.238;2022-07-29T08:30:51;29.60;99.90
12967;DHT22;6548;49.996;8.238;2022-07-29T08:33:17;28.90;99.90
12967;DHT22;6548;49.996;8.238;2022-07-29T08:35:43;28.40;99.90
12967;DHT22;6548;49.996;8.238;2022-07-29T08:38:08;28.30;99.90
12967;DHT22;6548;49.996;8.238;2022-07-29T08:40:35;28.50;99.90
12967;DHT22;6548;49.996;8.238;2022-07-29T08:43:05;29.30;99.90
12967;DHT22;6548;49.996;8.238;2022-07-29T08:45:44;29.40;99.90
12967;DHT22;6548;49.996;8.238;2022-07-29T08:48:12;29.60;99.90
12967;DHT22;6548;49.996;8.238;2022-07-29T08:50:39;29.40;99.90
12967;DHT22;6548;49.996;8.238;2022-07-29T08:53:05;28.70;99.90
12967;DHT22;6548;49.996;8.238;2022-07-29T08:55:32;27.80;99.90
12967;DHT22;6548;49.996;8.238;2022-07-29T08:57:59;28.50;99.90
12967;DHT22;6548;49.996;8.238;2022-07-29T09:00:25;27.70;99.90
12967;DHT22;6548;49.996;8.238;2022-07-29T09:02:56;28.50;99.90
12967;DHT22;6548;49.996;8.238;2022-07-29T09:05:24;29.20;99.90
12967;DHT22;6548;49.996;8.238;2022-07-29T09:07:50;30.10;99.90
12967;DHT22;6548;49.996;8.238;2022-07-29T09:10:16;30.40;99.90
12967;DHT22;6548;49.996;8.238;2022-07-29T09:12:42;30.90;99.90
12967;DHT22;6548;49.996;8.238;2022-07-29T09:15:08;31.20;99.90
12967;DHT22;6548;49.996;8.238;2022-07-29T09:17:53;31.60;99.90
12967;DHT22;6548;49.996;8.238;2022-07-29T09:20:21;31.30;99.90
12967;DHT22;6548;49.996;8.238;2022-07-29T09:22:49;30.80;99.90
12967;DHT22;6548;49.996;8.238;2022-07-29T09:25:35;31.30;99.90
12967;DHT22;6548;49.996;8.238;2022-07-29T09:28:13;31.60;99.90
12967;DHT22;6548;49.996;8.238;2022-07-29T09:33:17;32.70;99.90
12967;DHT22;6548;49.996;8.238;2022-07-29T09:35:43;32.70;99.90
12967;DHT22;6548;49.996;8.238;2022-07-29T09:38:12;33.30;99.90
12967;DHT22;6548;49.996;8.238;2022-07-29T09:40:39;33.50;99.90
12967;DHT22;6548;49.996;8.238;2022-07-29T09:43:12;33.00;99.90
12967;DHT22;6548;49.996;8.238;2022-07-29T09:45:38;33.00;99.90
12967;DHT22;6548;49.996;8.238;2022-07-29T09:48:18;33.50;99.90
12967;DHT22;6548;49.996;8.238;2022-07-29T09:50:45;32.00;99.90
12967;DHT22;6548;49.996;8.238;2022-07-29T09:53:12;32.10;99.90
12967;DHT22;6548;49.996;8.238;2022-07-29T09:55:54;30.90;99.90
12967;DHT22;6548;49.996;8.238;2022-07-29T09:58:21;30.20;99.90
12967;DHT22;6548;49.996;8.238;2022-07-29T10:00:50;30.40;99.90
12967;DHT22;6548;49.996;8.238;2022-07-29T10:03:17;31.00;99.90
12967;DHT22;6548;49.996;8.238;2022-07-29T10:05:44;29.40;99.90
12967;DHT22;6548;49.996;8.238;2022-07-29T10:08:11;29.80;99.90
12967;DHT22;6548;49.996;8.238;2022-07-29T10:10:40;30.20;99.90
12967;DHT22;6548;49.996;8.238;2022-07-29T10:13:07;31.20;99.90
12967;DHT22;6548;49.996;8.238;2022-07-29T10:15:36;31.90;99.90
12967;DHT22;6548;49.996;8.238;2022-07-29T10:18:06;32.60;99.90
12967;DHT22;6548;49.996;8.238;2022-07-29T10:20:33;32.70;99.90
12967;DHT22;6548;49.996;8.238;2022-07-29T10:22:58;31.60;99.90
12967;DHT22;6548;49.996;8.238;2022-07-29T10:25:25;30.50;99.90
12967;DHT22;6548;49.996;8.238;2022-07-29T10:27:51;30.40;99.90
12967;DHT22;6548;49.996;8.238;2022-07-29T10:30:18;30.70;99.90
12967;DHT22;6548;49.996;8.238;2022-07-29T10:32:53;29.80;99.90
12967;DHT22;6548;49.996;8.238;2022-07-29T10:36:15;28.70;99.90
12967;DHT22;6548;49.996;8.238;2022-07-29T10:38:42;29.40;99.90
12967;DHT22;6548;49.996;8.238;2022-07-29T10:43:57;31.50;99.90
12967;DHT22;6548;49.996;8.238;2022-07-29T10:46:23;31.70;99.90
12967;DHT22;6548;49.996;8.238;2022-07-29T10:49:12;31.80;99.90
12967;DHT22;6548;49.996;8.238;2022-07-29T10:52:06;32.70;99.90
12967;DHT22;6548;49.996;8.238;2022-07-29T10:57:23;33.40;99.90
12967;DHT22;6548;49.996;8.238;2022-07-29T11:07:24;31.60;99.90
12967;DHT22;6548;49.996;8.238;2022-07-29T11:15:11;34.20;99.20
12967;DHT22;6548;49.996;8.238;2022-07-29T11:23:31;31.10;99.90
12967;DHT22;6548;49.996;8.238;2022-07-29T11:26:13;32.40;99.90
12967;DHT22;6548;49.996;8.238;2022-07-29T11:31:20;31.60;99.90
12967;DHT22;6548;49.996;8.238;2022-07-29T11:33:56;32.30;99.90
12967;DHT22;6548;49.996;8.238;2022-07-29T11:36:22;33.10;99.70
12967;DHT22;6548;49.996;8.238;2022-07-29T11:38:47;33.00;99.60
12967;DHT22;6548;49.996;8.238;2022-07-29T11:41:26;33.30;99.40
12967;DHT22;6548;49.996;8.238;2022-07-29T11:43:57;32.70;99.40
12967;DHT22;6548;49.996;8.238;2022-07-29T11:46:49;32.20;99.90
12967;DHT22;6548;49.996;8.238;2022-07-29T11:49:26;32.90;99.90
12967;DHT22;6548;49.996;8.238;2022-07-29T11:51:53;32.60;99.40
12967;DHT22;6548;49.996;8.238;2022-07-29T11:54:31;31.50;99.90
12967;DHT22;6548;49.996;8.238;2022-07-29T11:56:58;31.60;99.90
12967;DHT22;6548;49.996;8.238;2022-07-29T11:59:24;31.30;99.90
12967;DHT22;6548;49.996;8.238;2022-07-29T12:01:55;31.30;99.90
12967;DHT22;6548;49.996;8.238;2022-07-29T12:04:21;30.50;99.90
12967;DHT22;6548;49.996;8.238;2022-07-29T12:06:55;29.90;99.90
12967;DHT22;6548;49.996;8.238;2022-07-29T12:09:23;30.00;99.90
12967;DHT22;6548;49.996;8.238;2022-07-29T12:11:49;31.10;99.90
12967;DHT22;6548;49.996;8.238;2022-07-29T12:14:39;31.00;99.90
12967;DHT22;6548;49.996;8.238;2022-07-29T12:17:25;30.20;99.90
12967;DHT22;6548;49.996;8.238;2022-07-29T12:19:51;32.20;99.90
12967;DHT22;6548;49.996;8.238;2022-07-29T12:22:29;33.00;99.60
12967;DHT22;6548;49.996;8.238;2022-07-29T12:24:55;33.00;99.20
12967;DHT22;6548;49.996;8.238;2022-07-29T12:27:25;32.80;99.10
12967;DHT22;6548;49.996;8.238;2022-07-29T12:29:56;33.20;98.90
12967;DHT22;6548;49.996;8.238;2022-07-29T12:32:22;32.50;98.50
12967;DHT22;6548;49.996;8.238;2022-07-29T12:34:50;32.60;99.40
12967;DHT22;6548;49.996;8.238;2022-07-29T12:37:25;32.40;99.00
12967;DHT22;6548;49.996;8.238;2022-07-29T12:39:51;31.50;99.20
12967;DHT22;6548;49.996;8.238;2022-07-29T12:42:16;31.80;99.90
12967;DHT22;6548;49.996;8.238;2022-07-29T12:44:47;32.10;99.20
12967;DHT22;6548;49.996;8.238;2022-07-29T12:47:13;32.40;98.70
12967;DHT22;6548;49.996;8.238;2022-07-29T12:49:39;32.20;98.70
12967;DHT22;6548;49.996;8.238;2022-07-29T12:52:25;31.40;98.90
12967;DHT22;6548;49.996;8.238;2022-07-29T12:54:50;30.40;99.90
12967;DHT22;6548;49.996;8.238;2022-07-29T12:57:16;30.60;99.90
12967;DHT22;6548;49.996;8.238;2022-07-29T12:59:42;30.20;99.90
12967;DHT22;6548;49.996;8.238;2022-07-29T13:02:20;30.60;99.90
12967;DHT22;6548;49.996;8.238;2022-07-29T13:04:55;30.90;99.90
12967;DHT22;6548;49.996;8.238;2022-07-29T13:07:30;31.40;99.90
12967;DHT22;6548;49.996;8.238;2022-07-29T13:10:19;32.30;99.50
12967;DHT22;6548;49.996;8.238;2022-07-29T13:13:11;31.90;98.70
12967;DHT22;6548;49.996;8.238;2022-07-29T13:15:42;31.70;99.20
12967;DHT22;6548;49.996;8.238;2022-07-29T13:20:52;32.40;98.70
12967;DHT22;6548;49.996;8.238;2022-07-29T13:23:18;32.80;98.30
12967;DHT22;6548;49.996;8.238;2022-07-29T13:25:43;32.60;98.30
12967;DHT22;6548;49.996;8.238;2022-07-29T13:28:09;32.60;99.30
12967;DHT22;6548;49.996;8.238;2022-07-29T13:30:34;33.00;99.20
12967;DHT22;6548;49.996;8.238;2022-07-29T13:33:00;32.80;99.60
12967;DHT22;6548;49.996;8.238;2022-07-29T13:35:25;32.20;99.90
12967;DHT22;6548;49.996;8.238;2022-07-29T13:37:51;31.80;99.90
12967;DHT22;6548;49.996;8.238;2022-07-29T13:40:17;31.50;99.90
12967;DHT22;6548;49.996;8.238;2022-07-29T13:42:43;31.50;99.90
12967;DHT22;6548;49.996;8.238;2022-07-29T13:45:10;31.00;99.90
12967;DHT22;6548;49.996;8.238;2022-07-29T13:47:36;31.20;99.90
12967;DHT22;6548;49.996;8.238;2022-07-29T13:50:04;31.00;99.90
12967;DHT22;6548;49.996;8.238;2022-07-29T13:52:29;31.00;99.90
12967;DHT22;6548;49.996;8.238;2022-07-29T13:54:55;30.70;99.90
12967;DHT22;6548;49.996;8.238;2022-07-29T13:57:21;29.90;99.90
12967;DHT22;6548;49.996;8.238;2022-07-29T13:59:46;30.00;99.90
12967;DHT22;6548;49.996;8.238;2022-07-29T14:02:12;30.00;99.90
12967;DHT22;6548;49.996;8.238;2022-07-29T14:04:39;30.30;99.90
12967;DHT22;6548;49.996;8.238;2022-07-29T14:07:05;30.00;99.90
12967;DHT22;6548;49.996;8.238;2022-07-29T14:09:30;29.70;99.90
12967;DHT22;6548;49.996;8.238;2022-07-29T14:11:56;29.90;99.90
12967;DHT22;6548;49.996;8.238;2022-07-29T14:14:22;29.50;99.90
12967;DHT22;6548;49.996;8.238;2022-07-29T14:16:47;29.60;99.90
12967;DHT22;6548;49.996;8.238;2022-07-29T14:19:13;29.30;99.90
12967;DHT22;6548;49.996;8.238;2022-07-29T14:21:38;29.40;99.90
12967;DHT22;6548;49.996;8.238;2022-07-29T14:24:04;29.40;99.90
12967;DHT22;6548;49.996;8.238;2022-07-29T14:26:30;29.40;99.90
12967;DHT22;6548;49.996;8.238;2022-07-29T14:28:56;29.50;99.90
12967;DHT22;6548;49.996;8.238;2022-07-29T14:31:21;29.80;99.90
12967;DHT22;6548;49.996;8.238;2022-07-29T14:33:47;29.80;99.90
12967;DHT22;6548;49.996;8.238;2022-07-29T14:36:13;29.80;99.90
12967;DHT22;6548;49.996;8.238;2022-07-29T14:38:38;29.90;99.90
12967;DHT22;6548;49.996;8.238;2022-07-29T14:41:06;30.00;99.90
12967;DHT22;6548;49.996;8.238;2022-07-29T14:43:31;30.20;99.90
12967;DHT22;6548;49.996;8.238;2022-07-29T14:45:57;30.30;99.90
12967;DHT22;6548;49.996;8.238;2022-07-29T14:48:23;30.30;99.90
12967;DHT22;6548;49.996;8.238;2022-07-29T14:50:48;30.30;99.90
12967;DHT22;6548;49.996;8.238;2022-07-29T14:53:14;30.30;99.90
12967;DHT22;6548;49.996;8.238;2022-07-29T14:55:40;30.20;99.90
12967;DHT22;6548;49.996;8.238;2022-07-29T14:58:07;30.00;99.90
12967;DHT22;6548;49.996;8.238;2022-07-29T15:00:32;29.50;99.90
12967;DHT22;6548;49.996;8.238;2022-07-29T15:03:00;28.30;99.90
12967;DHT22;6548;49.996;8.238;2022-07-29T15:05:26;27.40;99.90
12967;DHT22;6548;49.996;8.238;2022-07-29T15:07:54;26.70;99.90
12967;DHT22;6548;49.996;8.238;2022-07-29T15:10:20;26.10;99.90
12967;DHT22;6548;49.996;8.238;2022-07-29T15:12:45;24.60;99.90
12967;DHT22;6548;49.996;8.238;2022-07-29T15:15:11;23.30;99.90
12967;DHT22;6548;49.996;8.238;2022-07-29T15:17:36;22.90;99.90
12967;DHT22;6548;49.996;8.238;2022-07-29T15:20:02;22.70;99.90
12967;DHT22;6548;49.996;8.238;2022-07-29T15:22:28;22.50;99.90
12967;DHT22;6548;49.996;8.238;2022-07-29T15:24:54;22.60;99.90
12967;DHT22;6548;49.996;8.238;2022-07-29T15:27:19;22.50;99.90
12967;DHT22;6548;49.996;8.238;2022-07-29T15:29:45;22.10;99.90
12967;DHT22;6548;49.996;8.238;2022-07-29T15:32:10;21.70;99.90
12967;DHT22;6548;49.996;8.238;2022-07-29T15:34:37;21.70;99.90
12967;DHT22;6548;49.996;8.238;2022-07-29T15:37:03;21.80;99.90
12967;DHT22;6548;49.996;8.238;2022-07-29T15:39:28;22.00;99.90
12967;DHT22;6548;49.996;8.238;2022-07-29T15:41:54;22.20;99.90
12967;DHT22;6548;49.996;8.238;2022-07-29T15:44:19;22.40;99.90
12967;DHT22;6548;49.996;8.238;2022-07-29T15:46:45;22.60;99.90
12967;DHT22;6548;49.996;8.238;2022-07-29T15:52:00;23.50;99.90
12967;DHT22;6548;49.996;8.238;2022-07-29T15:54:26;24.00;99.90
12967;DHT22;6548;49.996;8.238;2022-07-29T15:56:53;24.80;99.90
12967;DHT22;6548;49.996;8.238;2022-07-29T15:59:19;25.60;99.90
12967;DHT22;6548;49.996;8.238;2022-07-29T16:01:44;26.50;99.90
12967;DHT22;6548;49.996;8.238;2022-07-29T16:04:10;27.80;99.90
12967;DHT22;6548;49.996;8.238;2022-07-29T16:06:36;28.70;99.90
12967;DHT22;6548;49.996;8.238;2022-07-29T16:09:01;29.80;99.90
12967;DHT22;6548;49.996;8.238;2022-07-29T16:11:27;30.70;99.90
12967;DHT22;6548;49.996;8.238;2022-07-29T16:13:53;31.40;99.90
12967;DHT22;6548;49.996;8.238;2022-07-29T16:16:18;31.70;99.90
12967;DHT22;6548;49.996;8.238;2022-07-29T16:18:44;31.50;99.90
12967;DHT22;6548;49.996;8.238;2022-07-29T16:21:11;31.10;99.90
12967;DHT22;6548;49.996;8.238;2022-07-29T16:23:38;30.70;99.90
12967;DHT22;6548;49.996;8.238;2022-07-29T16:26:04;29.90;99.90
12967;DHT22;6548;49.996;8.238;2022-07-29T16:28:29;28.50;99.90
12967;DHT22;6548;49.996;8.238;2022-07-29T16:30:55;28.10;99.90
12967;DHT22;6548;49.996;8.238;2022-07-29T16:33:21;28.20;99.90